www.cux-wetter.de
Wetterdaten: Donnerstag, 13.06.2013
Datum Zeit Temp. A. Feuchte A. Luftdruck Regen Wind Richtung Richtung Sonnenschein Solar Taupunkt Windchill Windben
13.06.2013 00:00 18,0 C 80 % 1012,5 hPa 0,0 l/m 9,6 km/h (2 Bft) S-SW 210 0 min 0 W/m 14,5 C 16,6 C 9,6 km/h (2 Bft)
13.06.2013 00:15 18,0 C 80 % 1012,5 hPa 0,0 l/m 6,7 km/h (2 Bft) SW 215 0 min 0 W/m 14,5 C 17,9 C 6,7 km/h (2 Bft)
13.06.2013 00:29 18,0 C 80 % 1012,5 hPa 0,0 l/m 6,9 km/h (2 Bft) S-SW 200 0 min 0 W/m 14,5 C 17,8 C 6,9 km/h (2 Bft)
13.06.2013 00:45 18,0 C 80 % 1012,5 hPa 0,0 l/m 8,3 km/h (2 Bft) S 180 0 min 0 W/m 14,5 C 17,1 C 8,3 km/h (2 Bft)
13.06.2013 01:00 18,0 C 80 % 1012,5 hPa 0,0 l/m 6,8 km/h (2 Bft) S 190 0 min 0 W/m 14,5 C 17,8 C 6,8 km/h (2 Bft)
13.06.2013 01:15 18,0 C 82 % 1012,5 hPa 0,6 l/m 16,9 km/h (3 Bft) W-SW 240 0 min 0 W/m 14,9 C 14,3 C 16,9 km/h (3 Bft)
13.06.2013 01:30 17,7 C 84 % 1012,5 hPa 0,9 l/m 21,7 km/h (4 Bft) W 260 0 min 0 W/m 15,0 C 12,9 C 21,7 km/h (4 Bft)
13.06.2013 01:45 17,5 C 86 % 1012,5 hPa 0,6 l/m 19,1 km/h (3 Bft) W 265 0 min 0 W/m 15,1 C 13,2 C 19,1 km/h (3 Bft)
13.06.2013 02:00 17,4 C 86 % 1011,5 hPa 0,6 l/m 14,3 km/h (3 Bft) W 260 0 min 0 W/m 15,0 C 14,3 C 14,3 km/h (3 Bft)
13.06.2013 02:15 17,4 C 87 % 1011,5 hPa 0,3 l/m 15,4 km/h (3 Bft) SW 235 0 min 0 W/m 15,2 C 14,0 C 15,4 km/h (3 Bft)
13.06.2013 02:30 17,4 C 87 % 1011,5 hPa 0,9 l/m 13,3 km/h (3 Bft) SW 230 0 min 0 W/m 15,2 C 14,6 C 13,3 km/h (3 Bft)
13.06.2013 02:45 17,4 C 88 % 1011,5 hPa 2,4 l/m 19,2 km/h (3 Bft) SW 235 0 min 0 W/m 15,4 C 13,0 C 19,2 km/h (3 Bft)
13.06.2013 03:00 17,3 C 89 % 1011,5 hPa 0,6 l/m 14,1 km/h (3 Bft) W-SW 245 0 min 0 W/m 15,5 C 14,2 C 14,1 km/h (3 Bft)
13.06.2013 03:14 17,3 C 89 % 1011,5 hPa 0,6 l/m 15,1 km/h (3 Bft) W-SW 240 0 min 0 W/m 15,5 C 13,9 C 15,1 km/h (3 Bft)
13.06.2013 03:30 17,2 C 90 % 1011,5 hPa 0,0 l/m 15,7 km/h (3 Bft) W-SW 250 0 min 0 W/m 15,5 C 13,7 C 15,7 km/h (3 Bft)
13.06.2013 03:45 17,2 C 90 % 1010,5 hPa 0,0 l/m 15,8 km/h (3 Bft) SW 235 0 min 0 W/m 15,5 C 13,6 C 15,8 km/h (3 Bft)
13.06.2013 04:00 17,2 C 90 % 1010,5 hPa 0,0 l/m 18,5 km/h (3 Bft) SW 230 0 min 0 W/m 15,5 C 12,9 C 18,5 km/h (3 Bft)
13.06.2013 04:15 17,2 C 90 % 1010,5 hPa 0,3 l/m 18,4 km/h (3 Bft) W-SW 240 0 min 0 W/m 15,5 C 13,0 C 18,4 km/h (3 Bft)
13.06.2013 04:30 17,2 C 91 % 1010,5 hPa 0,0 l/m 19,5 km/h (3 Bft) W-SW 245 0 min 0 W/m 15,7 C 12,7 C 19,5 km/h (3 Bft)
13.06.2013 04:45 17,2 C 91 % 1010,5 hPa 0,3 l/m 17,2 km/h (3 Bft) SW 225 0 min 0 W/m 15,7 C 13,3 C 17,2 km/h (3 Bft)
13.06.2013 05:00 17,3 C 91 % 1010,5 hPa 0,0 l/m 21,8 km/h (4 Bft) SW 230 0 min 0 W/m 15,8 C 12,3 C 21,8 km/h (4 Bft)
13.06.2013 05:15 17,3 C 91 % 1010,5 hPa 0,0 l/m 17,0 km/h (3 Bft) SW 230 0 min 0 W/m 15,8 C 13,4 C 17,0 km/h (3 Bft)
13.06.2013 05:30 17,3 C 92 % 1010,5 hPa 0,0 l/m 16,3 km/h (3 Bft) SW 225 0 min 0 W/m 16,0 C 13,6 C 16,3 km/h (3 Bft)
13.06.2013 05:45 17,2 C 92 % 1010,5 hPa 0,3 l/m 17,4 km/h (3 Bft) SW 220 0 min 0 W/m 15,9 C 13,2 C 17,4 km/h (3 Bft)
13.06.2013 06:00 17,2 C 92 % 1009,5 hPa 0,3 l/m 15,3 km/h (3 Bft) SW 230 0 min 0 W/m 15,9 C 13,8 C 15,3 km/h (3 Bft)
13.06.2013 06:15 17,3 C 92 % 1009,5 hPa 0,6 l/m 14,5 km/h (3 Bft) W-SW 240 0 min 0 W/m 16,0 C 14,1 C 14,5 km/h (3 Bft)
13.06.2013 06:30 17,3 C 92 % 1009,5 hPa 0,0 l/m 17,6 km/h (3 Bft) SW 235 0 min 0 W/m 16,0 C 13,3 C 17,6 km/h (3 Bft)
13.06.2013 06:45 17,4 C 92 % 1009,5 hPa 0,3 l/m 18,5 km/h (3 Bft) SW 225 0 min 0 W/m 16,1 C 13,2 C 18,5 km/h (3 Bft)
13.06.2013 07:00 17,4 C 93 % 1009,5 hPa 0,3 l/m 18,0 km/h (3 Bft) SW 235 0 min 0 W/m 16,3 C 13,3 C 18,0 km/h (3 Bft)
13.06.2013 07:15 17,6 C 93 % 1009,5 hPa 0,0 l/m 23,5 km/h (4 Bft) SW 235 0 min 0 W/m 16,5 C 12,4 C 23,5 km/h (4 Bft)
13.06.2013 07:30 17,6 C 93 % 1009,5 hPa 0,0 l/m 23,3 km/h (4 Bft) SW 235 0 min 0 W/m 16,5 C 12,4 C 23,3 km/h (4 Bft)
13.06.2013 07:45 17,6 C 93 % 1009,5 hPa 0,0 l/m 17,7 km/h (3 Bft) SW 235 0 min 0 W/m 16,5 C 13,6 C 17,7 km/h (3 Bft)
13.06.2013 08:00 17,6 C 93 % 1009,5 hPa 0,3 l/m 19,9 km/h (4 Bft) W-SW 240 0 min 0 W/m 16,5 C 13,1 C 19,9 km/h (4 Bft)
13.06.2013 08:15 17,7 C 93 % 1009,5 hPa 0,6 l/m 21,4 km/h (4 Bft) W-SW 250 0 min 0 W/m 16,6 C 12,9 C 21,4 km/h (4 Bft)
13.06.2013 08:30 17,8 C 93 % 1009,5 hPa 0,3 l/m 26,6 km/h (4 Bft) W-SW 245 0 min 0 W/m 16,7 C 12,1 C 26,6 km/h (4 Bft)
13.06.2013 08:45 17,9 C 93 % 1009,5 hPa 0,0 l/m 23,2 km/h (4 Bft) W-SW 250 0 min 0 W/m 16,8 C 12,9 C 23,2 km/h (4 Bft)
13.06.2013 09:00 18,0 C 93 % 1009,5 hPa 0,0 l/m 29,0 km/h (5 Bft) W 260 0 min 0 W/m 16,8 C 12,0 C 29,0 km/h (5 Bft)
13.06.2013 09:15 18,1 C 93 % 1009,5 hPa 0,0 l/m 27,4 km/h (5 Bft) W-SW 245 0 min 0 W/m 16,9 C 12,4 C 27,4 km/h (5 Bft)
13.06.2013 09:30 18,1 C 93 % 1009,5 hPa 0,0 l/m 28,0 km/h (5 Bft) W-SW 250 0 min 0 W/m 16,9 C 12,3 C 28,0 km/h (5 Bft)
13.06.2013 09:45 18,2 C 93 % 1009,5 hPa 0,0 l/m 18,3 km/h (3 Bft) W-SW 240 0 min 0 W/m 17,0 C 14,3 C 18,3 km/h (3 Bft)
13.06.2013 10:00 18,2 C 93 % 1009,5 hPa 0,0 l/m 39,3 km/h (6 Bft) W-NW 290 0 min 0 W/m 17,0 C 11,1 C 39,3 km/h (6 Bft)
13.06.2013 10:15 17,1 C 92 % 1009,5 hPa 3,3 l/m 23,6 km/h (4 Bft) W 270 0 min 0 W/m 15,8 C 11,7 C 23,6 km/h (4 Bft)
13.06.2013 10:30 16,9 C 92 % 1009,5 hPa 3,0 l/m 22,4 km/h (4 Bft) W 275 0 min 0 W/m 15,6 C 11,7 C 22,4 km/h (4 Bft)
13.06.2013 10:45 17,1 C 92 % 1009,5 hPa 0,3 l/m 26,3 km/h (4 Bft) W 260 0 min 0 W/m 15,8 C 11,2 C 26,3 km/h (4 Bft)
13.06.2013 11:00 17,2 C 92 % 1009,5 hPa 0,0 l/m 22,3 km/h (4 Bft) W 265 0 min 0 W/m 15,9 C 12,1 C 22,3 km/h (4 Bft)
13.06.2013 11:15 17,0 C 91 % 1009,5 hPa 0,0 l/m 22,1 km/h (4 Bft) W 275 0 min 0 W/m 15,5 C 11,9 C 22,1 km/h (4 Bft)
13.06.2013 11:30 17,2 C 91 % 1009,5 hPa 0,0 l/m 18,6 km/h (3 Bft) W 270 0 min 0 W/m 15,7 C 12,9 C 18,6 km/h (3 Bft)
13.06.2013 11:45 17,6 C 90 % 1009,5 hPa 0,0 l/m 19,4 km/h (3 Bft) W 275 0 min 0 W/m 15,9 C 13,2 C 19,4 km/h (3 Bft)
13.06.2013 12:00 17,6 C 89 % 1009,5 hPa 0,0 l/m 24,7 km/h (4 Bft) W-NW 285 0 min 0 W/m 15,8 C 12,2 C 24,7 km/h (4 Bft)
13.06.2013 12:15 17,8 C 88 % 1009,5 hPa 0,0 l/m 21,7 km/h (4 Bft) W 260 0 min 0 W/m 15,8 C 13,0 C 21,7 km/h (4 Bft)
13.06.2013 12:30 19,0 C 87 % 1009,5 hPa 0,0 l/m 25,7 km/h (4 Bft) W 260 0 min 0 W/m 16,8 C 13,9 C 25,7 km/h (4 Bft)
13.06.2013 12:45 19,8 C 85 % 1009,5 hPa 0,0 l/m 23,0 km/h (4 Bft) W 260 0 min 0 W/m 17,2 C 15,4 C 23,0 km/h (4 Bft)
13.06.2013 12:59 19,9 C 80 % 1009,5 hPa 0,0 l/m 29,1 km/h (5 Bft) W 260 0 min 0 W/m 16,3 C 14,7 C 29,1 km/h (5 Bft)
13.06.2013 13:15 20,5 C 79 % 1009,5 hPa 0,0 l/m 31,6 km/h (5 Bft) W 260 0 min 0 W/m 16,7 C 15,2 C 31,6 km/h (5 Bft)
13.06.2013 13:30 20,2 C 77 % 1009,5 hPa 0,0 l/m 27,1 km/h (5 Bft) W 260 0 min 0 W/m 16,0 C 15,4 C 27,1 km/h (5 Bft)
13.06.2013 13:45 19,7 C 77 % 1009,5 hPa 0,0 l/m 21,6 km/h (4 Bft) W 260 0 min 0 W/m 15,5 C 15,5 C 21,6 km/h (4 Bft)
13.06.2013 14:00 19,8 C 77 % 1009,5 hPa 0,0 l/m 28,1 km/h (5 Bft) W-SW 255 0 min 0 W/m 15,6 C 14,7 C 28,1 km/h (5 Bft)
13.06.2013 14:15 19,7 C 77 % 1009,5 hPa 0,0 l/m 17,6 km/h (3 Bft) NW 320 0 min 0 W/m 15,5 C 16,3 C 17,6 km/h (3 Bft)
13.06.2013 14:30 18,8 C 76 % 1009,5 hPa 0,0 l/m 18,3 km/h (3 Bft) NW 320 0 min 0 W/m 14,5 C 15,0 C 18,3 km/h (3 Bft)
13.06.2013 14:45 18,4 C 76 % 1009,5 hPa 0,0 l/m 15,8 km/h (3 Bft) NW 310 0 min 0 W/m 14,1 C 15,1 C 15,8 km/h (3 Bft)
13.06.2013 15:00 19,9 C 75 % 1009,5 hPa 0,0 l/m 12,3 km/h (2 Bft) W 280 0 min 0 W/m 15,3 C 17,8 C 12,3 km/h (2 Bft)
13.06.2013 15:15 19,8 C 74 % 1009,5 hPa 0,0 l/m 14,2 km/h (3 Bft) W-NW 295 0 min 0 W/m 15,0 C 17,2 C 14,2 km/h (3 Bft)
13.06.2013 15:30 19,5 C 74 % 1009,5 hPa 0,0 l/m 13,1 km/h (3 Bft) NW 305 0 min 0 W/m 14,7 C 17,1 C 13,1 km/h (3 Bft)
13.06.2013 15:45 19,2 C 74 % 1009,5 hPa 0,0 l/m 14,9 km/h (3 Bft) N-NW 330 0 min 0 W/m 14,4 C 16,3 C 14,9 km/h (3 Bft)
13.06.2013 16:00 19,2 C 75 % 1009,5 hPa 0,0 l/m 13,8 km/h (3 Bft) NW 310 0 min 0 W/m 14,7 C 16,6 C 13,8 km/h (3 Bft)
13.06.2013 16:15 19,2 C 73 % 1009,5 hPa 0,0 l/m 12,8 km/h (3 Bft) W-NW 295 0 min 0 W/m 14,2 C 16,9 C 12,8 km/h (3 Bft)
13.06.2013 16:30 19,1 C 73 % 1010,5 hPa 0,0 l/m 15,6 km/h (3 Bft) W 280 0 min 0 W/m 14,1 C 16,0 C 15,6 km/h (3 Bft)
13.06.2013 16:45 18,7 C 73 % 1010,5 hPa 0,0 l/m 23,1 km/h (4 Bft) NW 315 0 min 0 W/m 13,8 C 13,9 C 23,1 km/h (4 Bft)
13.06.2013 17:00 17,8 C 74 % 1010,5 hPa 0,0 l/m 19,7 km/h (3 Bft) N-NW 340 0 min 0 W/m 13,1 C 13,4 C 19,7 km/h (3 Bft)
13.06.2013 17:16 17,4 C 74 % 1010,5 hPa 0,0 l/m 22,1 km/h (4 Bft) NW 325 0 min 0 W/m 12,7 C 12,4 C 22,1 km/h (4 Bft)
13.06.2013 17:30 17,0 C 75 % 1010,5 hPa 0,0 l/m 22,6 km/h (4 Bft) NW 315 0 min 0 W/m 12,5 C 11,8 C 22,6 km/h (4 Bft)
13.06.2013 17:45 16,8 C 76 % 1010,5 hPa 0,0 l/m 21,1 km/h (4 Bft) N-NW 335 0 min 0 W/m 12,5 C 11,8 C 21,1 km/h (4 Bft)
13.06.2013 18:00 16,6 C 76 % 1009,5 hPa 0,0 l/m 18,2 km/h (3 Bft) NW 310 0 min 0 W/m 12,3 C 12,2 C 18,2 km/h (3 Bft)
13.06.2013 18:15 16,7 C 78 % 1009,5 hPa 0,3 l/m 15,0 km/h (3 Bft) W-NW 290 0 min 0 W/m 12,8 C 13,3 C 15,0 km/h (3 Bft)
13.06.2013 18:30 16,7 C 79 % 1009,5 hPa 0,3 l/m 14,9 km/h (3 Bft) W 270 0 min 0 W/m 13,0 C 13,3 C 14,9 km/h (3 Bft)
13.06.2013 18:45 16,4 C 80 % 1009,5 hPa 0,0 l/m 9,7 km/h (2 Bft) W-NW 300 0 min 0 W/m 12,9 C 14,8 C 9,7 km/h (2 Bft)
13.06.2013 19:00 16,3 C 81 % 1009,5 hPa 0,0 l/m 8,9 km/h (2 Bft) W-NW 285 0 min 0 W/m 13,0 C 15,0 C 8,9 km/h (2 Bft)
13.06.2013 19:15 16,3 C 82 % 1009,5 hPa 0,3 l/m 8,5 km/h (2 Bft) NW 305 0 min 0 W/m 13,2 C 15,2 C 8,5 km/h (2 Bft)
13.06.2013 19:30 16,2 C 83 % 1009,5 hPa 0,6 l/m 8,0 km/h (2 Bft) W 265 0 min 0 W/m 13,3 C 15,4 C 8,0 km/h (2 Bft)
13.06.2013 19:45 16,2 C 83 % 1009,5 hPa 0,3 l/m 5,2 km/h (1 Bft) W-SW 250 0 min 0 W/m 13,3 C 16,2 C 5,2 km/h (1 Bft)
13.06.2013 20:00 16,2 C 84 % 1009,5 hPa 0,3 l/m 6,1 km/h (2 Bft) W-SW 245 0 min 0 W/m 13,5 C 16,2 C 6,1 km/h (2 Bft)
13.06.2013 20:15 16,1 C 85 % 1009,5 hPa 0,3 l/m 9,7 km/h (2 Bft) W-SW 255 0 min 0 W/m 13,6 C 14,5 C 9,7 km/h (2 Bft)
13.06.2013 20:30 16,0 C 85 % 1009,5 hPa 0,0 l/m 10,7 km/h (2 Bft) W-SW 250 0 min 0 W/m 13,5 C 13,9 C 10,7 km/h (2 Bft)
13.06.2013 20:45 15,8 C 85 % 1009,5 hPa 0,3 l/m 15,6 km/h (3 Bft) W 260 0 min 0 W/m 13,3 C 12,0 C 15,6 km/h (3 Bft)
13.06.2013 21:00 15,6 C 85 % 1009,5 hPa 0,0 l/m 19,5 km/h (3 Bft) W-SW 245 0 min 0 W/m 13,1 C 10,6 C 19,5 km/h (3 Bft)
13.06.2013 21:15 15,4 C 86 % 1009,5 hPa 0,0 l/m 19,5 km/h (3 Bft) W 265 0 min 0 W/m 13,1 C 10,4 C 19,5 km/h (3 Bft)
13.06.2013 21:30 15,2 C 87 % 1009,5 hPa 0,3 l/m 24,5 km/h (4 Bft) W 265 0 min 0 W/m 13,0 C 9,0 C 24,5 km/h (4 Bft)
13.06.2013 21:45 15,0 C 87 % 1009,5 hPa 0,0 l/m 22,0 km/h (4 Bft) W 260 0 min 0 W/m 12,9 C 9,3 C 22,0 km/h (4 Bft)
13.06.2013 22:00 15,0 C 88 % 1009,5 hPa 0,3 l/m 31,3 km/h (5 Bft) W 275 0 min 0 W/m 13,0 C 7,5 C 31,3 km/h (5 Bft)
13.06.2013 22:15 14,7 C 88 % 1009,5 hPa 0,3 l/m 33,2 km/h (5 Bft) W 270 0 min 0 W/m 12,7 C 6,8 C 33,2 km/h (5 Bft)
13.06.2013 22:30 14,6 C 88 % 1009,5 hPa 0,0 l/m 27,6 km/h (5 Bft) W 270 0 min 0 W/m 12,6 C 7,6 C 27,6 km/h (5 Bft)
13.06.2013 22:45 14,7 C 89 % 1009,5 hPa 0,0 l/m 18,7 km/h (3 Bft) W-SW 250 0 min 0 W/m 12,9 C 9,7 C 18,7 km/h (3 Bft)
13.06.2013 23:00 14,6 C 89 % 1009,5 hPa 0,0 l/m 18,8 km/h (3 Bft) W-SW 250 0 min 0 W/m 12,8 C 9,6 C 18,8 km/h (3 Bft)
13.06.2013 23:15 14,4 C 88 % 1009,5 hPa 0,0 l/m 26,9 km/h (4 Bft) W 260 0 min 0 W/m 12,4 C 7,4 C 26,9 km/h (4 Bft)
13.06.2013 23:30 14,4 C 89 % 1009,5 hPa 0,0 l/m 26,5 km/h (4 Bft) W 260 0 min 0 W/m 12,6 C 7,5 C 26,5 km/h (4 Bft)
13.06.2013 23:45 14,3 C 89 % 1009,5 hPa 0,0 l/m 23,6 km/h (4 Bft) W 260 0 min 0 W/m 12,5 C 8,0 C 23,6 km/h (4 Bft)
_ Min-Zeit 23:45 16:15 06:00 - 19:45 - - - - 18:00 22:15 19:45
Minimum _ 14,3 C 73 % 1009,5 hPa - 5,2 km/h (1 Bft) - - - - 12,3 C 6,8 C 5,2 km/h (1 Bft)
_ Max-Zeit 13:15 07:00 00:00 10:15 10:00 - - 00:00 00:00 12:45 00:15 10:00
Maximum _ 20,5 C 93 % 1012,5 hPa 3,3 l/m 39,3 km/h
W-NW (6 Bft)
- - 0 min 0 W/m 17,2 C 17,9 C 39,3 km/h
W-NW (6 Bft)
Durchschnitt _ 17,4 C 85 % 1010,0 hPa #21,3 l/m 19,0 km/h (3 Bft) W - #0 min. 0 W/m 14,9 C 13,3 C 19,0 km/h (3 Bft)
copyright by Holger Just